Observation data for Haskell on 02/14/2020      Previous  Date  Next       Current Mesonet Observations  Soil Data  Daily Summary Page  Observations in Plain Language
KHA1 140600Z 08006KT M02/M07 A3038 RMK A01 T10241066  RH  073%=      5-min Rain = 0
KHA1 140605Z 08006KT M02/M07 A3038 RMK A01 T10241066  RH  073%=      5-min Rain = 0
KHA1 140610Z 07006KT M03/M07 A3037 RMK A01 T10251065  RH  074%=      5-min Rain = 0
KHA1 140615Z 07006KT M03/M07 A3038 RMK A01 T10251065  RH  074%=      5-min Rain = 0
KHA1 140620Z 07005KT M03/M06 A3038 RMK A01 T10261063  RH  076%=      5-min Rain = 0
KHA1 140625Z 06006KT M03/M06 A3038 RMK A01 T10271064  RH  076%=      5-min Rain = 0
KHA1 140630Z 06007KT M03/M07 A3037 RMK A01 T10271065  RH  075%=      5-min Rain = 0
KHA1 140635Z 06007KT M03/M07 A3038 RMK A01 T10271065  RH  075%=      5-min Rain = 0
KHA1 140640Z 06007KT M03/M07 A3038 RMK A01 T10271065  RH  075%=      5-min Rain = 0
KHA1 140645Z 06007KT M03/M07 A3038 RMK A01 T10271065  RH  075%=      5-min Rain = 0
KHA1 140650Z 06007KT M03/M07 A3038 RMK A01 T10271066  RH  075%=      5-min Rain = 0
KHA1 140655Z 06007KT M03/M07 A3038 RMK A01 T10281066  RH  075%=      5-min Rain = 0
KHA1 140700Z 06006KT M03/M07 A3038 RMK A01 T10281066  RH  075%=      5-min Rain = 0
KHA1 140705Z 06007KT M03/M07 A3038 RMK A01 T10281066  RH  075%=      5-min Rain = 0
KHA1 140710Z 07006KT M03/M07 A3038 RMK A01 T10281067  RH  075%=      5-min Rain = 0
KHA1 140715Z 07007KT M03/M07 A3038 RMK A01 T10291067  RH  075%=      5-min Rain = 0
KHA1 140720Z 07006KT M03/M07 A3038 RMK A01 T10291068  RH  074%=      5-min Rain = 0
KHA1 140725Z 07007KT M03/M07 A3038 RMK A01 T10301068  RH  075%=      5-min Rain = 0
KHA1 140730Z 07006KT M03/M07 A3038 RMK A01 T10301068  RH  075%=      5-min Rain = 0
KHA1 140735Z 07006KT M03/M07 A3038 RMK A01 T10311069  RH  075%=      5-min Rain = 0
KHA1 140740Z 08006KT M03/M07 A3038 RMK A01 T10311069  RH  075%=      5-min Rain = 0
KHA1 140745Z 07006KT M03/M07 A3038 RMK A01 T10321068  RH  076%=      5-min Rain = 0
KHA1 140750Z 08006KT M03/M07 A3038 RMK A01 T10331068  RH  077%=      5-min Rain = 0
KHA1 140755Z 08006KT M03/M07 A3038 RMK A01 T10331068  RH  077%=      5-min Rain = 0
KHA1 140800Z 07005KT M03/M07 A3038 RMK A01 T10341068  RH  077%=      5-min Rain = 0
KHA1 140805Z 07005KT M03/M07 A3038 RMK A01 T10341067  RH  078%=      5-min Rain = 0
KHA1 140810Z 07005KT M03/M07 A3038 RMK A01 T10341067  RH  078%=      5-min Rain = 0
KHA1 140815Z 07006KT M04/M07 A3038 RMK A01 T10351067  RH  078%=      5-min Rain = 0
KHA1 140820Z 07005KT M04/M07 A3038 RMK A01 T10351068  RH  078%=      5-min Rain = 0
KHA1 140825Z 07006KT M03/M07 A3038 RMK A01 T10341068  RH  077%=      5-min Rain = 0
KHA1 140830Z 06005KT M03/M07 A3038 RMK A01 T10341067  RH  078%=      5-min Rain = 0
KHA1 140835Z 06005KT M03/M07 A3038 RMK A01 T10341068  RH  077%=      5-min Rain = 0
KHA1 140840Z 06005KT M03/M07 A3038 RMK A01 T10341068  RH  078%=      5-min Rain = 0
KHA1 140845Z 06005KT M03/M07 A3038 RMK A01 T10341067  RH  078%=      5-min Rain = 0
KHA1 140850Z 07005KT M03/M07 A3038 RMK A01 T10341067  RH  078%=      5-min Rain = 0
KHA1 140855Z 07005KT M04/M07 A3038 RMK A01 T10351067  RH  079%=      5-min Rain = 0
KHA1 140900Z 07005KT M03/M07 A3038 RMK A01 T10341067  RH  078%=      5-min Rain = 0
KHA1 140905Z 06005KT M03/M07 A3038 RMK A01 T10341068  RH  077%=      5-min Rain = 0
KHA1 140910Z 07005KT M03/M07 A3038 RMK A01 T10341068  RH  078%=      5-min Rain = 0
KHA1 140915Z 07005KT M04/M07 A3038 RMK A01 T10351069  RH  077%=      5-min Rain = 0
KHA1 140920Z 07005KT M04/M07 A3038 RMK A01 T10351068  RH  078%=      5-min Rain = 0
KHA1 140925Z 07005KT M04/M07 A3038 RMK A01 T10351069  RH  077%=      5-min Rain = 0
KHA1 140930Z 06005KT M04/M07 A3038 RMK A01 T10351070  RH  077%=      5-min Rain = 0
KHA1 140935Z 06005KT M03/M07 A3038 RMK A01 T10341068  RH  077%=      5-min Rain = 0
KHA1 140940Z 06005KT M03/M07 A3038 RMK A01 T10341067  RH  078%=      5-min Rain = 0
KHA1 140945Z 06005KT M03/M07 A3038 RMK A01 T10331067  RH  078%=      5-min Rain = 0
KHA1 140950Z 06005KT M03/M07 A3038 RMK A01 T10341066  RH  079%=      5-min Rain = 0
KHA1 140955Z 05004KT M03/M06 A3038 RMK A01 T10331063  RH  080%=      5-min Rain = 0
KHA1 141000Z 05005KT M03/M06 A3038 RMK A01 T10331063  RH  080%=      5-min Rain = 0
KHA1 141005Z 05004KT M03/M06 A3038 RMK A01 T10341063  RH  081%=      5-min Rain = 0
KHA1 141010Z 05005KT M04/M06 A3038 RMK A01 T10351063  RH  081%=      5-min Rain = 0
KHA1 141015Z 05004KT M04/M06 A3038 RMK A01 T10351063  RH  081%=      5-min Rain = 0
KHA1 141020Z 05004KT M04/M06 A3038 RMK A01 T10361064  RH  081%=      5-min Rain = 0
KHA1 141025Z 05004KT M04/M06 A3039 RMK A01 T10351062  RH  081%=      5-min Rain = 0
KHA1 141030Z 05004KT M04/M06 A3039 RMK A01 T10351061  RH  082%=      5-min Rain = 0
KHA1 141035Z 05004KT M04/M06 A3039 RMK A01 T10351062  RH  081%=      5-min Rain = 0
KHA1 141040Z 05004KT M04/M06 A3039 RMK A01 T10361064  RH  081%=      5-min Rain = 0
KHA1 141045Z 05004KT M04/M06 A3039 RMK A01 T10351064  RH  081%=      5-min Rain = 0
KHA1 141050Z 05005KT M04/M06 A3039 RMK A01 T10351062  RH  081%=      5-min Rain = 0
KHA1 141055Z 05005KT M04/M06 A3039 RMK A01 T10351064  RH  080%=      5-min Rain = 0
KHA1 141100Z 04005KT M03/M06 A3039 RMK A01 T10341063  RH  081%=      5-min Rain = 0
KHA1 141105Z 05005KT M03/M06 A3039 RMK A01 T10341061  RH  082%=      5-min Rain = 0
KHA1 141110Z 05004KT M04/M06 A3039 RMK A01 T10351062  RH  082%=      5-min Rain = 0
KHA1 141115Z 05005KT M04/M06 A3039 RMK A01 T10351063  RH  081%=      5-min Rain = 0
KHA1 141120Z 05005KT M04/M06 A3039 RMK A01 T10351063  RH  081%=      5-min Rain = 0
KHA1 141125Z 05005KT M04/M06 A3039 RMK A01 T10361064  RH  081%=      5-min Rain = 0
KHA1 141130Z 05005KT M04/M06 A3039 RMK A01 T10361064  RH  081%=      5-min Rain = 0
KHA1 141135Z 05006KT M04/M06 A3039 RMK A01 T10361064  RH  081%=      5-min Rain = 0
KHA1 141140Z 05005KT M04/M06 A3039 RMK A01 T10361063  RH  082%=      5-min Rain = 0
KHA1 141145Z 05006KT M04/M06 A3039 RMK A01 T10361063  RH  082%=      5-min Rain = 0
KHA1 141150Z 05006KT M04/M06 A3039 RMK A01 T10361064  RH  081%=      5-min Rain = 0
KHA1 141155Z 05006KT M04/M06 A304 RMK A01 T10361063  RH  082%=      5-min Rain = 0
KHA1 141200Z 05007KT M04/M06 A304 RMK A01 T10371064  RH  081%=      5-min Rain = 0
KHA1 141205Z 05007KT M04/M06 A304 RMK A01 T10361061  RH  083%=      5-min Rain = 0
KHA1 141210Z 05007KT M04/M06 A304 RMK A01 T10371063  RH  082%=      5-min Rain = 0
KHA1 141215Z 05007KT M04/M06 A304 RMK A01 T10371063  RH  082%=      5-min Rain = 0
KHA1 141220Z 05007KT M04/M06 A304 RMK A01 T10371064  RH  082%=      5-min Rain = 0
KHA1 141225Z 05005KT M04/M06 A304 RMK A01 T10371063  RH  083%=      5-min Rain = 0
KHA1 141230Z 05005KT M04/M06 A304 RMK A01 T10381064  RH  082%=      5-min Rain = 0
KHA1 141235Z 05006KT M04/M06 A304 RMK A01 T10381064  RH  082%=      5-min Rain = 0
KHA1 141240Z 05005KT M04/M06 A304 RMK A01 T10391064  RH  082%=      5-min Rain = 0
KHA1 141245Z 05005KT M04/M07 A304 RMK A01 T10401065  RH  083%=      5-min Rain = 0
KHA1 141250Z 06004KT M04/M06 A304 RMK A01 T10401064  RH  083%=      5-min Rain = 0
KHA1 141255Z 06004KT M04/M07 A3041 RMK A01 T10401065  RH  083%=      5-min Rain = 0
KHA1 141300Z 06004KT M04/M07 A3041 RMK A01 T10411065  RH  083%=      5-min Rain = 0
KHA1 141305Z 06004KT M04/M06 A3041 RMK A01 T10411064  RH  084%=      5-min Rain = 0
KHA1 141310Z 06004KT M04/M06 A3041 RMK A01 T10421064  RH  084%=      5-min Rain = 0
KHA1 141315Z 06004KT M04/M06 A3041 RMK A01 T10421064  RH  085%=      5-min Rain = 0
KHA1 141320Z 07003KT M04/M06 A3041 RMK A01 T10421063  RH  085%=      5-min Rain = 0
KHA1 141325Z 07003KT M04/M06 A3041 RMK A01 T10431063  RH  086%=      5-min Rain = 0
KHA1 141330Z 07004KT M04/M06 A3041 RMK A01 T10421063  RH  085%=      5-min Rain = 0
KHA1 141335Z 07004KT M04/M07 A3041 RMK A01 T10421065  RH  084%=      5-min Rain = 0
KHA1 141340Z 06004KT M04/M06 A3041 RMK A01 T10411064  RH  084%=      5-min Rain = 0
KHA1 141345Z 06004KT M04/M06 A3041 RMK A01 T10411063  RH  085%=      5-min Rain = 0
KHA1 141350Z 07003KT M04/M06 A3042 RMK A01 T10401063  RH  084%=      5-min Rain = 0
KHA1 141355Z 07004KT M04/M06 A3042 RMK A01 T10391064  RH  083%=      5-min Rain = 0
KHA1 141400Z 07004KT M04/M06 A3042 RMK A01 T10371062  RH  083%=      5-min Rain = 0
KHA1 141405Z 07005KT M04/M06 A3042 RMK A01 T10361064  RH  081%=      5-min Rain = 0
KHA1 141410Z 07005KT M04/M07 A3042 RMK A01 T10361067  RH  079%=      5-min Rain = 0
KHA1 141415Z 08006KT M03/M07 A3042 RMK A01 T10341067  RH  078%=      5-min Rain = 0
KHA1 141420Z 08006KT M03/M07 A3043 RMK A01 T10331069  RH  076%=      5-min Rain = 0
KHA1 141425Z 08006KT M03/M07 A3043 RMK A01 T10321067  RH  077%=      5-min Rain = 0
KHA1 141430Z 08006KT M03/M07 A3043 RMK A01 T10321069  RH  076%=      5-min Rain = 0
KHA1 141435Z 08005KT M03/M07 A3043 RMK A01 T10301067  RH  076%=      5-min Rain = 0
KHA1 141440Z 08004KT M03/M06 A3043 RMK A01 T10271063  RH  076%=      5-min Rain = 0
KHA1 141445Z 08005KT M03/M07 A3043 RMK A01 T10271066  RH  074%=      5-min Rain = 0
KHA1 141450Z 08005KT M03/M07 A3043 RMK A01 T10261067  RH  074%=      5-min Rain = 0
KHA1 141455Z 08005KT M03/M07 A3043 RMK A01 T10251066  RH  074%=      5-min Rain = 0
KHA1 141500Z 09005KT M02/M07 A3043 RMK A01 T10231065  RH  073%=      5-min Rain = 0
KHA1 141505Z 09005KT M02/M07 A3043 RMK A01 T10221066  RH  072%=      5-min Rain = 0
KHA1 141510Z 09006KT M02/M07 A3043 RMK A01 T10201067  RH  070%=      5-min Rain = 0
KHA1 141515Z 09005KT M02/M07 A3043 RMK A01 T10181065  RH  070%=      5-min Rain = 0
KHA1 141520Z 09005KT M02/M07 A3043 RMK A01 T10161065  RH  069%=      5-min Rain = 0
KHA1 141525Z 09005KT M02/M07 A3043 RMK A01 T10171065  RH  070%=      5-min Rain = 0
KHA1 141530Z 10005KT M01/M06 A3043 RMK A01 T10141063  RH  069%=      5-min Rain = 0
KHA1 141535Z 10006KT M01/M06 A3043 RMK A01 T10121061  RH  069%=      5-min Rain = 0
KHA1 141540Z 11006KT M01/M06 A3043 RMK A01 T10121061  RH  069%=      5-min Rain = 0
KHA1 141545Z 10005KT M01/M06 A3043 RMK A01 T10101061  RH  068%=      5-min Rain = 0
KHA1 141550Z 10006KT M01/M06 A3043 RMK A01 T10091060  RH  068%=      5-min Rain = 0
KHA1 141555Z 10006KT M01/M06 A3043 RMK A01 T10081059  RH  068%=      5-min Rain = 0
KHA1 141600Z 11006KT M01/M06 A3043 RMK A01 T10071060  RH  068%=      5-min Rain = 0
KHA1 141605Z 11006KT M01/M06 A3043 RMK A01 T10071059  RH  068%=      5-min Rain = 0
KHA1 141610Z 11005KT M01/M06 A3043 RMK A01 T10061058  RH  068%=      5-min Rain = 0
KHA1 141615Z 12005KT M01/M06 A3043 RMK A01 T10051056  RH  068%=      5-min Rain = 0
KHA1 141620Z 12004KT M00/M05 A3043 RMK A01 T10021054  RH  068%=      5-min Rain = 0
KHA1 141625Z 15005KT M00/M05 A3043 RMK A01 T10011051  RH  069%=      5-min Rain = 0
KHA1 141630Z 14005KT 00/M05 A3043 RMK A01 T00011052  RH  068%=      5-min Rain = 0
KHA1 141635Z 15005KT 00/M05 A3043 RMK A01 T00021050  RH  068%=      5-min Rain = 0
KHA1 141640Z 16006KT 00/M05 A3043 RMK A01 T00021052  RH  067%=      5-min Rain = 0
KHA1 141645Z 14006KT 00/M05 A3043 RMK A01 T00021054  RH  066%=      5-min Rain = 0
KHA1 141650Z 15004KT 01/M05 A3042 RMK A01 T00061048  RH  067%=      5-min Rain = 0
KHA1 141655Z 13006KT 01/M05 A3042 RMK A01 T00091047  RH  066%=      5-min Rain = 0
KHA1 141700Z 15005KT 01/M05 A3042 RMK A01 T00091047  RH  067%=      5-min Rain = 0
KHA1 141705Z 14005KT 01/M05 A3042 RMK A01 T00101046  RH  066%=      5-min Rain = 0
KHA1 141710Z 14005G11KT 01/M04 A3042 RMK A01 T00131042  RH  067%=      5-min Rain = 0
KHA1 141715Z 15006KT 01/M05 A3042 RMK A01 T00121045  RH  066%=      5-min Rain = 0
KHA1 141720Z 12005KT 01/M05 A3042 RMK A01 T00121045  RH  066%=      5-min Rain = 0
KHA1 141725Z 14005KT 02/M04 A3041 RMK A01 T00161041  RH  067%=      5-min Rain = 0
KHA1 141730Z 15003KT 02/M04 A3041 RMK A01 T00221035  RH  067%=      5-min Rain = 0
KHA1 141735Z 15004KT 02/M04 A3041 RMK A01 T00211039  RH  065%=      5-min Rain = 0
KHA1 141740Z 14007KT 02/M04 A3041 RMK A01 T00201038  RH  066%=      5-min Rain = 0
KHA1 141745Z 16004KT 02/M04 A304 RMK A01 T00211036  RH  066%=      5-min Rain = 0
KHA1 141750Z 17003KT 02/M03 A304 RMK A01 T00221034  RH  067%=      5-min Rain = 0
KHA1 141755Z 15003KT 03/M03 A304 RMK A01 T00301028  RH  066%=      5-min Rain = 0
KHA1 141800Z 17005G10KT 03/M03 A304 RMK A01 T00281031  RH  065%=      5-min Rain = 0
KHA1 141805Z 16005KT 03/M03 A3039 RMK A01 T00271031  RH  066%=      5-min Rain = 0
KHA1 141810Z 12006G11KT 03/M03 A3039 RMK A01 T00291032  RH  065%=      5-min Rain = 0
KHA1 141815Z 13006KT 03/M04 A3038 RMK A01 T00281035  RH  064%=      5-min Rain = 0
KHA1 141820Z 18003KT 03/M03 A3038 RMK A01 T00311031  RH  064%=      5-min Rain = 0
KHA1 141825Z 13005KT 03/M03 A3038 RMK A01 T00341031  RH  063%=      5-min Rain = 0
KHA1 141830Z 15004KT 03/M03 A3037 RMK A01 T00331032  RH  063%=      5-min Rain = 0
KHA1 141835Z 14005G10KT 04/M03 A3037 RMK A01 T00401025  RH  063%=      5-min Rain = 0
KHA1 141840Z 14006KT 04/M03 A3036 RMK A01 T00381028  RH  062%=      5-min Rain = 0
KHA1 141845Z 14006KT 04/M02 A3036 RMK A01 T00411023  RH  064%=      5-min Rain = 0
KHA1 141850Z 14005KT 04/M02 A3035 RMK A01 T00431023  RH  063%=      5-min Rain = 0
KHA1 141855Z 13006KT 04/M02 A3035 RMK A01 T00441022  RH  063%=      5-min Rain = 0
KHA1 141900Z 14006KT 05/M02 A3034 RMK A01 T00451023  RH  062%=      5-min Rain = 0
KHA1 141905Z 18005KT 05/M02 A3034 RMK A01 T00451022  RH  062%=      5-min Rain = 0
KHA1 141910Z 16007KT 05/M02 A3034 RMK A01 T00501020  RH  061%=      5-min Rain = 0
KHA1 141915Z 13006KT 05/M02 A3033 RMK A01 T00501023  RH  060%=      5-min Rain = 0
KHA1 141920Z 14003G8KT 05/M02 A3033 RMK A01 T00531019  RH  060%=      5-min Rain = 0
KHA1 141925Z 14006G11KT 06/M02 A3033 RMK A01 T00561016  RH  060%=      5-min Rain = 0
KHA1 141930Z 15007KT 06/M01 A3032 RMK A01 T00591012  RH  061%=      5-min Rain = 0
KHA1 141935Z 16006G11KT 06/M02 A3032 RMK A01 T00601015  RH  059%=      5-min Rain = 0
KHA1 141940Z 14007KT 06/M01 A3032 RMK A01 T00621013  RH  059%=      5-min Rain = 0
KHA1 141945Z 16005G10KT 07/M01 A3031 RMK A01 T00661006  RH  060%=      5-min Rain = 0
KHA1 141950Z 18006KT 07/M01 A3031 RMK A01 T00671009  RH  059%=      5-min Rain = 0
KHA1 141955Z 16005KT 07/M01 A303 RMK A01 T00671013  RH  057%=      5-min Rain = 0
KHA1 142000Z 14007KT 07/M01 A303 RMK A01 T00681010  RH  058%=      5-min Rain = 0
KHA1 142005Z 15005KT 07/M01 A303 RMK A01 T00691011  RH  057%=      5-min Rain = 0
KHA1 142010Z 13004KT 07/M01 A303 RMK A01 T00731010  RH  056%=      5-min Rain = 0
KHA1 142015Z 16006KT 08/M01 A3029 RMK A01 T00771005  RH  057%=      5-min Rain = 0
KHA1 142020Z 19007KT 08/M00 A3029 RMK A01 T00811001  RH  057%=      5-min Rain = 0
KHA1 142025Z 16008KT 08/M01 A3029 RMK A01 T00801009  RH  054%=      5-min Rain = 0
KHA1 142030Z 17009KT 08/M01 A3028 RMK A01 T00811007  RH  054%=      5-min Rain = 0
KHA1 142035Z 18009KT 08/M01 A3028 RMK A01 T00821005  RH  054%=      5-min Rain = 0
KHA1 142040Z 17007KT 08/M00 A3028 RMK A01 T00841004  RH  055%=      5-min Rain = 0
KHA1 142045Z 19010G15KT 09/00 A3028 RMK A01 T00880003  RH  056%=      5-min Rain = 0
KHA1 142050Z 18009KT 09/00 A3027 RMK A01 T00880000  RH  055%=      5-min Rain = 0
KHA1 142055Z 19008G13KT 09/01 A3027 RMK A01 T00920005  RH  055%=      5-min Rain = 0
KHA1 142100Z 19008KT 09/00 A3027 RMK A01 T00920000  RH  053%=      5-min Rain = 0
KHA1 142105Z 19010KT 09/01 A3026 RMK A01 T00930005  RH  055%=      5-min Rain = 0
KHA1 142110Z 18007KT 10/01 A3026 RMK A01 T00970006  RH  054%=      5-min Rain = 0
KHA1 142115Z 18006G11KT 10/00 A3026 RMK A01 T00960000  RH  052%=      5-min Rain = 0
KHA1 142120Z 17007G12KT 10/01 A3026 RMK A01 T00980005  RH  053%=      5-min Rain = 0
KHA1 142125Z 18007G12KT 10/00 A3025 RMK A01 T01000002  RH  051%=      5-min Rain = 0
KHA1 142130Z 20008KT 10/01 A3025 RMK A01 T00990006  RH  053%=      5-min Rain = 0
KHA1 142135Z 17008KT 10/00 A3025 RMK A01 T01000004  RH  052%=      5-min Rain = 0
KHA1 142140Z 17009KT 10/M00 A3025 RMK A01 T01011002  RH  049%=      5-min Rain = 0
KHA1 142145Z 18009KT 10/00 A3024 RMK A01 T01030001  RH  050%=      5-min Rain = 0
KHA1 142150Z 19009KT 10/M00 A3024 RMK A01 T01021001  RH  049%=      5-min Rain = 0
KHA1 142155Z 18007KT 10/00 A3024 RMK A01 T01040002  RH  050%=      5-min Rain = 0
KHA1 142200Z 15007KT 11/00 A3024 RMK A01 T01070002  RH  049%=      5-min Rain = 0
KHA1 142205Z 16009KT 11/M00 A3023 RMK A01 T01061002  RH  047%=      5-min Rain = 0
KHA1 142210Z 16009KT 11/M00 A3023 RMK A01 T01071001  RH  048%=      5-min Rain = 0
KHA1 142215Z 16008KT 11/00 A3023 RMK A01 T01080000  RH  048%=      5-min Rain = 0
KHA1 142220Z 16009KT 11/M00 A3023 RMK A01 T01111002  RH  046%=      5-min Rain = 0
KHA1 142225Z 16008G14KT 11/00 A3023 RMK A01 T01130002  RH  047%=      5-min Rain = 0
KHA1 142230Z 16006G11KT 11/00 A3023 RMK A01 T01140002  RH  047%=      5-min Rain = 0
KHA1 142235Z 18008KT 11/00 A3022 RMK A01 T01140002  RH  047%=      5-min Rain = 0
KHA1 142240Z 17009KT 12/M00 A3022 RMK A01 T01151002  RH  045%=      5-min Rain = 0
KHA1 142245Z 18010G16KT 12/00 A3022 RMK A01 T01170002  RH  046%=      5-min Rain = 0
KHA1 142250Z 19010KT 12/00 A3022 RMK A01 T01160002  RH  046%=      5-min Rain = 0
KHA1 142255Z 18011KT 12/00 A3022 RMK A01 T01150002  RH  046%=      5-min Rain = 0
KHA1 142300Z 18010G15KT 12/M00 A3022 RMK A01 T01161001  RH  045%=      5-min Rain = 0
KHA1 142305Z 18011G16KT 12/00 A3021 RMK A01 T01150001  RH  046%=      5-min Rain = 0
KHA1 142310Z 17010G15KT 12/00 A3021 RMK A01 T01150000  RH  046%=      5-min Rain = 0
KHA1 142315Z 17011G17KT 12/00 A3021 RMK A01 T011600-0  RH  045%=      5-min Rain = 0
KHA1 142320Z 18010KT 12/00 A3021 RMK A01 T01150003  RH  047%=      5-min Rain = 0
KHA1 142325Z 18010KT 12/01 A3021 RMK A01 T01150007  RH  048%=      5-min Rain = 0
KHA1 142330Z 18010G16KT 11/01 A3021 RMK A01 T01140007  RH  049%=      5-min Rain = 0
KHA1 142335Z 18011G17KT 11/00 A3021 RMK A01 T01130002  RH  047%=      5-min Rain = 0
KHA1 142340Z 17010G15KT 11/00 A3021 RMK A01 T01130002  RH  047%=      5-min Rain = 0
KHA1 142345Z 17009G16KT 11/00 A3021 RMK A01 T01120004  RH  048%=      5-min Rain = 0
KHA1 142350Z 17008KT 11/01 A3021 RMK A01 T01110005  RH  049%=      5-min Rain = 0
KHA1 142355Z 17009KT 11/01 A3021 RMK A01 T01100005  RH  049%=      5-min Rain = 0
KHA1 150000Z 17008KT 11/01 A3021 RMK A01 T01090007  RH  050%=      5-min Rain = 0
KHA1 150005Z 17008G13KT 11/01 A3021 RMK A01 T01070008  RH  051%=      5-min Rain = 0
KHA1 150010Z 17007G12KT 11/01 A3021 RMK A01 T01060008  RH  051%=      5-min Rain = 0
KHA1 150015Z 17007KT 10/01 A3021 RMK A01 T01040009  RH  053%=      5-min Rain = 0
KHA1 150020Z 17006KT 10/01 A3021 RMK A01 T01020010  RH  054%=      5-min Rain = 0
KHA1 150025Z 16007KT 10/01 A3021 RMK A01 T01000011  RH  055%=      5-min Rain = 0
KHA1 150030Z 17007KT 10/01 A3021 RMK A01 T00980011  RH  055%=      5-min Rain = 0
KHA1 150035Z 16007KT 10/01 A3021 RMK A01 T00980011  RH  055%=      5-min Rain = 0
KHA1 150040Z 16007G12KT 10/01 A302 RMK A01 T00980010  RH  055%=      5-min Rain = 0
KHA1 150045Z 16008KT 10/01 A302 RMK A01 T00970010  RH  055%=      5-min Rain = 0
KHA1 150050Z 17008KT 10/01 A3021 RMK A01 T00970009  RH  055%=      5-min Rain = 0
KHA1 150055Z 17008KT 10/01 A302 RMK A01 T00950010  RH  056%=      5-min Rain = 0
KHA1 150100Z 16008KT 09/01 A302 RMK A01 T00940009  RH  056%=      5-min Rain = 0
KHA1 150105Z 16007KT 09/01 A302 RMK A01 T00920010  RH  057%=      5-min Rain = 0
KHA1 150110Z 16007KT 09/01 A302 RMK A01 T00920009  RH  057%=      5-min Rain = 0
KHA1 150115Z 16008KT 09/01 A302 RMK A01 T00920008  RH  057%=      5-min Rain = 0
KHA1 150120Z 16007KT 09/01 A302 RMK A01 T00900009  RH  057%=      5-min Rain = 0
KHA1 150125Z 16007KT 09/01 A302 RMK A01 T00890008  RH  058%=      5-min Rain = 0
KHA1 150130Z 16008KT 09/01 A302 RMK A01 T00880008  RH  058%=      5-min Rain = 0
KHA1 150135Z 16008KT 09/01 A302 RMK A01 T00880007  RH  057%=      5-min Rain = 0
KHA1 150140Z 16008G13KT 09/01 A302 RMK A01 T00880006  RH  057%=      5-min Rain = 0
KHA1 150145Z 16008KT 09/01 A302 RMK A01 T00870007  RH  058%=      5-min Rain = 0
KHA1 150150Z 16008KT 09/01 A302 RMK A01 T00870006  RH  058%=      5-min Rain = 0
KHA1 150155Z 16008KT 09/01 A302 RMK A01 T00860006  RH  058%=      5-min Rain = 0
KHA1 150200Z 16006KT 08/01 A302 RMK A01 T00840007  RH  059%=      5-min Rain = 0
KHA1 150205Z 16007KT 08/01 A3021 RMK A01 T00830007  RH  059%=      5-min Rain = 0
KHA1 150210Z 16007KT 08/01 A3021 RMK A01 T00810006  RH  060%=      5-min Rain = 0
KHA1 150215Z 15006KT 08/01 A302 RMK A01 T00790006  RH  060%=      5-min Rain = 0
KHA1 150220Z 15005KT 08/01 A3021 RMK A01 T00760005  RH  062%=      5-min Rain = 0
KHA1 150225Z 15005KT 07/00 A302 RMK A01 T00740004  RH  062%=      5-min Rain = 0
KHA1 150230Z 15005KT 07/00 A3021 RMK A01 T00740002  RH  061%=      5-min Rain = 0
KHA1 150235Z 15005KT 07/00 A3021 RMK A01 T00720002  RH  062%=      5-min Rain = 0
KHA1 150240Z 15006KT 07/00 A3021 RMK A01 T00720001  RH  061%=      5-min Rain = 0
KHA1 150245Z 15006KT 07/00 A302 RMK A01 T007100-0  RH  061%=      5-min Rain = 0
KHA1 150250Z 15007KT 07/00 A302 RMK A01 T007000-0  RH  061%=      5-min Rain = 0
KHA1 150255Z 15006KT 07/M00 A302 RMK A01 T00701001  RH  062%=      5-min Rain = 0
KHA1 150300Z 14006KT 07/M00 A3021 RMK A01 T00681001  RH  062%=      5-min Rain = 0
KHA1 150305Z 14006KT 07/00 A3021 RMK A01 T006600-0  RH  063%=      5-min Rain = 0
KHA1 150310Z 14006KT 06/00 A3021 RMK A01 T00640000  RH  064%=      5-min Rain = 0
KHA1 150315Z 15005KT 06/00 A3021 RMK A01 T00620001  RH  065%=      5-min Rain = 0
KHA1 150320Z 14006KT 06/00 A302 RMK A01 T00600001  RH  067%=      5-min Rain = 0
KHA1 150325Z 15005KT 06/00 A302 RMK A01 T00580001  RH  068%=      5-min Rain = 0
KHA1 150330Z 14006KT 06/00 A302 RMK A01 T00570001  RH  068%=      5-min Rain = 0
KHA1 150335Z 15006KT 06/00 A302 RMK A01 T00550001  RH  069%=      5-min Rain = 0
KHA1 150340Z 15007KT 06/00 A302 RMK A01 T00560001  RH  068%=      5-min Rain = 0
KHA1 150345Z 15008KT 06/00 A3019 RMK A01 T00570001  RH  068%=      5-min Rain = 0
KHA1 150350Z 15009KT 06/00 A3019 RMK A01 T00600002  RH  067%=      5-min Rain = 0
KHA1 150355Z 15009KT 06/00 A3019 RMK A01 T00620003  RH  066%=      5-min Rain = 0
KHA1 150400Z 15009G14KT 06/00 A3019 RMK A01 T00630003  RH  067%=      5-min Rain = 0
KHA1 150405Z 15010G16KT 06/00 A3018 RMK A01 T00620004  RH  067%=      5-min Rain = 0
KHA1 150410Z 16010G15KT 06/00 A3019 RMK A01 T00620004  RH  067%=      5-min Rain = 0
KHA1 150415Z 16011G16KT 06/01 A3018 RMK A01 T00620005  RH  068%=      5-min Rain = 0
KHA1 150420Z 16010G15KT 06/01 A3018 RMK A01 T00630005  RH  068%=      5-min Rain = 0
KHA1 150425Z 16011G16KT 06/01 A3018 RMK A01 T00630006  RH  068%=      5-min Rain = 0
KHA1 150430Z 16011G16KT 07/01 A3018 RMK A01 T00650007  RH  067%=      5-min Rain = 0
KHA1 150435Z 16010G15KT 07/01 A3018 RMK A01 T00650008  RH  068%=      5-min Rain = 0
KHA1 150440Z 16012KT 07/01 A3017 RMK A01 T00660008  RH  067%=      5-min Rain = 0
KHA1 150445Z 16011KT 07/01 A3018 RMK A01 T00670007  RH  067%=      5-min Rain = 0
KHA1 150450Z 16011KT 07/01 A3018 RMK A01 T00660008  RH  067%=      5-min Rain = 0
KHA1 150455Z 16011G18KT 07/01 A3018 RMK A01 T00660008  RH  067%=      5-min Rain = 0
KHA1 150500Z 16011KT 07/01 A3018 RMK A01 T00650008  RH  068%=      5-min Rain = 0
KHA1 150505Z 17011G16KT 06/01 A3018 RMK A01 T00640008  RH  068%=      5-min Rain = 0
KHA1 150510Z 17010KT 06/01 A3018 RMK A01 T00630008  RH  069%=      5-min Rain = 0
KHA1 150515Z 17011G16KT 06/01 A3018 RMK A01 T00610009  RH  070%=      5-min Rain = 0
KHA1 150520Z 17010KT 06/01 A3018 RMK A01 T00600009  RH  071%=      5-min Rain = 0
KHA1 150525Z 17009KT 06/01 A3018 RMK A01 T00580009  RH  072%=      5-min Rain = 0
KHA1 150530Z 17010KT 06/01 A3017 RMK A01 T00560009  RH  073%=      5-min Rain = 0
KHA1 150535Z 17010KT 06/01 A3017 RMK A01 T00550009  RH  073%=      5-min Rain = 0
KHA1 150540Z 17009KT 06/01 A3017 RMK A01 T00550009  RH  074%=      5-min Rain = 0
KHA1 150545Z 17009KT 05/01 A3017 RMK A01 T00530009  RH  074%=      5-min Rain = 0
KHA1 150550Z 17010G15KT 05/01 A3017 RMK A01 T00530009  RH  074%=      5-min Rain = 0
KHA1 150555Z 17010G15KT 06/01 A3016 RMK A01 T00550010  RH  073%=      5-min Rain = 0

Page generated in 0.0406 seconds.